< < Back
Terminal Aerodrome Forecast


Current Version              Previous Versions:   1  2  3  4  5  6  7  8  9  

Terminal Aerodrome Forecast

142
FTUS42 KFFC 242300
TAFAHN
TAF
KAHN 242337Z 2500/2524 26005KT P6SM SCT050 BKN100
     FM250800 VRB03KT 5SM BR SCT120
     FM251400 27004KT P6SM SCT030
     FM251600 30006KT P6SM SCT040=

Latest METAR

006
SAUS70 KWBC 250100
MTRAHN
METAR KAHN 250051Z AUTO 24003KT 10SM CLR 26/22 A2994 RMK AO2 SLP128
T02560222


USA.gov is the U.S. government's official web portal to all federal, state and local government web resources and services.